Appleton, NY (14008)

6:22 AM EST on February 07, 2016 (GMT -0500)
Somerset | | Change Station
CLOSE
Current Station
Personal Weather Station
Location: Appleton, NY
Elevation: 318 ft
Nearby Weather Stations

Elev 318 ft 43.33 °N, 78.63 °W | Updated 8 seconds ago

Partly Cloudy
Partly Cloudy
31.7 °F
Feels Like 32 °F
N
0.0
Wind Variable Wind from SSW
Gusts 6.0 mph

Today
High -- | Low -- °F
--% Chance of Precip.
Yesterday
High -- | Low -- °F
Precip. -- in
Pressure 30.14 in
Visibility 7.0 miles
Clouds Overcast 3400 ft
Windchill 32 °F
Dew Point 31 °F
Humidity 96%
Rainfall 0.00 in
Snow Depth Not available.
7:23 AM 5:33 PM
Waning Crescent, 2% visible
METAR KIAG 071053Z AUTO 23006KT 7SM OVC034 01/M02 A3010 RMK AO2 SLP207 T00111022
Pressure 30.14 in
Visibility 7.0 miles
Clouds Overcast 3400 ft
Windchill 32 °F
Dew Point 31 °F
Humidity 96%
Rainfall 0.00 in
Snow Depth Not available.
7:23 AM 5:33 PM
Waning Crescent, 2% visible
METAR KIAG 071053Z AUTO 23006KT 7SM OVC034 01/M02 A3010 RMK AO2 SLP207 T00111022

10-Day Weather Forecast

Almanac

Astronomy

Feb. 07, 2016 Rise Set
Actual Time
Civil Twilight
Nautical Twilight
Astronomical Twilight
Moon
Length of Visible Light
Length of Day
Tomorrow will be .
, % of the Moon is Illuminated

Today's Extremes

State Highs State Lows

Community

WunderPhotos

Upload Photos

1,891,170 photos uploaded!

WunderBlog® & News

Nearby

Air Quality

  Air Quality AQ Index Pollutant
Not available.

Snow Depth

Station Depth Elevation

Earthquake Activity

City Distance Mag. Time & Date
Minimum magnitude displayed is 2.5.

Coastal Water Temperatures

Place Temperature

Stations

Nearby Weather Stations

Station Location Temp. Windchill Dew Point Humidity Wind Precip. Elev Updated Type
                   

Watches & Warnings

There are currently no watches in effect.